Kirovohrad, Ukraine
Current Conditions -  °F | °C
As of 6:00 PM on Saturday 25 Oct 2014 (Local Time) from UKDR Reporting Station
Clear Clear  
Wind Chill: 28°   Ceiling: Unl
Heat Index: 34°   Visibility: 6mi
Dew Point: 18°   Wind: 7mph
Humidity: 52%   Direction: 50°NE
Pressure: 30.48"   Gusts: NA
Location:  48.5°N, 32.26°E
Report Text: UKDR 251500Z 05003MPS 010V080 CAVOK 01/M08 Q1032 3609//65 NOSIG
Loading
Personal Weather Stations






























Interactive Weather Map
Tropical Storm Tracking
New forecast layout! Learn more

10-Day Weather Forecast

Advertisements
Track Severe Weather on mobile